x

Diamond Shoals (41025) Wave Buoy

7:50pm - Wed 2nd Sep 2015 All times are EDT. -4 hours from GMT.

  • Sig Wave height 1.6ft
  • Swell Direction
  • Peak Period 6s
  • Average Period 6s
  • Wind
    2mph, 4mph gusts
  • Sea Temp 86°f
  • Air Temp 81°f
  • Sea Pressure 1014.4mb
  • Diamond Shoals
  • Diamond Shoals

More Historic Weather Station data

Upgrade to MSW Pro to gain access to the past 30 days of data for over 8000 Wavebouys and Weather Stations around the globe.

Join Pro

Comparision Forecast

View Surf forecast
   
Wed 09/02 7:50pm 1.6ft 6s 6s 2 4 mph 1014.4mb 86f 81f
6:50pm 1.6ft 6s 6s 2 4 mph 1014.3mb 86f 82f
5:50pm 1.6ft 9s 6s 2
mph
1014.9mb 86f 83f
4:50pm 1.6ft 8s 6s 2 4 mph 1015.5mb 86f 83f
2:50pm 1.6ft 9s 6s 2 4 mph 1016.9mb 85f 82f
1:50pm 1.6ft 8s 6s 4 7 mph 1017.1mb 85f 81f
12:50pm 1.6ft 9s 6s 4 7 mph 1017.6mb 85f 81f
11:50am 1.6ft 14s 5s 7
mph
1017.9mb 84f 80f
10:50am 1.6ft 9s 4s 7 9 mph 1017.6mb 84f 80f
9:50am 1.6ft 10s 4s 9 11 mph 1017.6mb 84f 80f
7:50am 1.6ft 10s 4s 9 11 mph 1017.9mb 83f 80f
6:50am 1.6ft 9s 5s 11 13 mph 1017.4mb 83f 80f
5:50am 1.6ft 9s 6s 11 13 mph 1017.3mb 83f 80f
4:50am 1.6ft 9s 6s 9 11 mph 1017mb 83f 80f
3:50am 1.6ft 9s 6s 9
mph
1017.1mb 83f 80f
2:50am 1.6ft 9s 6s 9 11 mph 1017.7mb 83f 80f
1:50am 1.6ft 10s 6s 7 9 mph 1017.8mb 83f 80f
12:50am 2ft 8s 6s 7 9 mph 1018mb 83f 80f
Tue 09/01 11:50pm 2ft 8s 6s 7 9 mph 1018mb 84f 80f
10:50pm 2ft 10s 6s 7 9 mph 1018mb 84f 80f
9:50pm 2ft 9s 6s 4 7 mph 1018.2mb 84f 80f
8:50pm 2ft 9s 5s 2 4 mph 1017.9mb 83f 80f
7:50pm 2.5ft 7s 5s 4 7 mph 1017.5mb 84f 80f
6:50pm 2.5ft 6s 5s 7 9 mph 1017.4mb 84f 80f
5:50pm 2.5ft 8s 5s 9
mph
1017.2mb 84f 80f
4:50pm 2.5ft 9s 5s 9 11 mph 1017.1mb 84f 80f
3:50pm 2.5ft 10s 5s 7 9 mph 1017mb 84f 80f
2:50pm 2.5ft 6s 5s 9
mph
1017.5mb 84f 80f
1:50pm 2.5ft 7s 5s 7 9 mph 1017.7mb 84f 80f
12:50pm 3ft 6s 5s 9 11 mph 1018.1mb 84f 79f
11:50am 3.5ft 6s 5s 9 11 mph 1018.5mb 84f 79f
10:50am 3.5ft 6s 5s 9 11 mph 1018.8mb 84f 79f
9:50am 3ft 6s 5s 9 11 mph 1018.1mb 84f 79f
8:50am 3ft 6s 5s 13 16 mph 1017.1mb 84f 79f
7:50am 3.5ft 7s 5s 13 16 mph 1016.8mb 84f 79f
6:50am 3.5ft 6s 5s 13 18 mph 1016.2mb 84f 80f
5:50am 3.5ft 5s 5s 7 9 mph 1015.7mb 84f 80f
4:50am 3.5ft 8s 5s 4 7 mph 1016.4mb 84f 79f
3:50am 4ft 8s 5s 9 13 mph 1016.6mb 84f 78f
2:50am 4ft 5s 5s 11 13 mph 1016.6mb 84f 82f
1:50am 4ft 8s 5s 16 18 mph 1017mb 84f 81f
12:50am 4ft 5s 5s 13 18 mph 1017.6mb 84f 81f
Mon 08/31 11:50pm 4ft 8s 5s 13 16 mph 1018mb 83f 81f
10:50pm 4ft 8s 5s 16 18 mph 1018.2mb 83f 81f
9:50pm 4ft 8s 5s 18 20 mph 1018.2mb 84f 81f
8:50pm 3.5ft 8s 4s 20 22 mph 1018.1mb 84f 81f
7:50pm 3.5ft 9s 5s 18 20 mph 1017.8mb 84f 81f
6:50pm 3.5ft 9s 5s 16 18 mph 1018.4mb 84f 80f
5:50pm 3.5ft 9s 5s 9 11 mph 1018.8mb 84f 79f
4:50pm 3ft 9s 5s 9 11 mph 1019mb 84f 78f
3:50pm 3ft 10s 7s 9 11 mph 1019.7mb 84f 78f
2:50pm 3ft 9s 7s 11 16 mph 1020.7mb 84f 74f
1:50pm 3ft 9s 8s 13 22 mph 1020.4mb 85f 80f
12:50pm 3ft 9s 8s 7 9 mph 1020.8mb 85f 82f
11:50am 3ft 9s 8s 9
mph
1020.2mb 85f 82f
10:50am 2.5ft 9s 8s 7 9 mph 1020.2mb 84f 82f
9:50am 2.5ft 10s 8s 4 7 mph 1020.4mb 84f 82f
8:50am 3ft 9s 8s 4 7 mph 1020mb 84f 82f
6:50am 3.5ft 9s 8s  -  2 mph 1020.1mb 83f 81f
5:50am 3ft 10s 8s  -  2 mph 1020mb 83f 80f
4:50am 3ft 9s 7s 4 7 mph 1019.6mb 83f 80f
3:50am 3.5ft 10s 7s 4 7 mph 1019.9mb 83f 80f
2:50am 3.5ft 9s 7s 2 4 mph 1020.3mb 83f 79f
1:50am 3.5ft 10s 7s 2
mph
1020.3mb 83f 79f
12:50am 3.5ft 10s 8s 2 4 mph 1020.4mb 84f 79f
Sun 08/30 11:50pm 3ft 10s 7s 2 4 mph 1020.6mb 84f 79f
10:50pm 3.5ft 10s 8s 2 4 mph 1020.5mb 83f 79f
9:50pm 3.5ft 11s 7s 2 4 mph 1020.9mb 82f 79f
8:50pm 3ft 11s 8s  -  2 mph 1020.5mb 80f 78f
7:50pm 3ft 10s 7s 4
mph
1020.4mb 81f 78f
6:50pm 2.5ft 10s 7s 4 7 mph 1020mb 81f 79f
5:50pm 3ft 11s 7s 2 4 mph 1020.1mb 81f 79f
4:50pm 3ft 11s 6s 4 7 mph 1019.8mb 81f 79f
3:50pm 3.5ft 9s 7s 4 9 mph 1019.7mb 82f 80f
2:50pm 3.5ft 10s 7s 9 11 mph 1019.8mb 82f 79f
1:50pm 3.5ft 10s 7s 7 9 mph 1020.8mb 83f 79f
12:50pm 3.5ft 11s 7s 9
mph
1021.3mb 83f 79f
11:50am 4ft 10s 7s 9 11 mph 1021.6mb 83f 79f
10:50am 3.5ft 10s 7s 11 13 mph 1021.2mb 84f 78f
9:50am 3.5ft 10s 7s 11 16 mph 1020.6mb 84f 78f
8:50am 3.5ft 10s 7s 13
mph
1020mb 83f 78f
7:50am 3.5ft 10s 8s 9 13 mph 1020mb 83f 78f
6:50am 3.5ft 10s 7s 7 9 mph 1019.3mb 82f 78f
5:50am 3.5ft 10s 7s 11 13 mph 1018.6mb 82f 78f
4:50am 3.5ft 10s 7s 11 13 mph 1018.4mb 81f 78f
3:50am 3.5ft 10s 7s 11 13 mph 1018.6mb 81f 78f
2:50am 4ft 10s 8s 11 16 mph 1018.2mb 81f 79f
1:50am 3.5ft 11s 6s 11
mph
1018.6mb 82f 79f
12:50am 4.5ft 11s 6s 11 13 mph 1019.3mb 82f 79f